2020/07/11 15:00 VVNB 111500Z 12004KT 090V160 CAVOK 30/23 Q1003 NOSIG
2020/07/11 15:00 VVDN 111500Z 21006KT 9999 FEW015 26/22 Q1008 NOSIG
2020/07/11 15:00 VVTS 111500Z 21007KT 9999 SCT017 SCT050 29/25 Q1009 NOSIG
2020/07/11 15:00 VVPB 111500Z 22006KT 9999 FEW020 SCT070 25/21 Q1007 NOSIG

Powered by MinhViet JSC.